createdAt,value
2018-12-30T00:02:08.307Z,26.33
2018-12-30T00:04:58.341Z,28.27
2018-12-30T00:07:49.517Z,25.50
2018-12-30T00:10:40.688Z,27.43
2018-12-30T00:13:30.100Z,22.90
2018-12-30T00:16:19.597Z,19.57
2018-12-30T00:19:10.741Z,15.23
2018-12-30T00:21:41.135Z,16.07
2018-12-30T00:24:30.955Z,20.93
2018-12-30T00:27:20.397Z,19.67
2018-12-30T00:30:10.462Z,21.23
2018-12-30T00:33:00.226Z,21.70
2018-12-30T00:35:50.262Z,25.90
2018-12-30T00:38:39.734Z,18.13
2018-12-30T00:41:29.222Z,21.83
2018-12-30T00:44:18.916Z,17.80
2018-12-30T00:47:08.380Z,25.33
2018-12-30T00:49:58.144Z,19.70
2018-12-30T00:52:47.643Z,18.50
2018-12-30T00:55:37.375Z,20.90
2018-12-30T00:58:19.311Z,20.73
2018-12-30T01:01:09.158Z,17.50
2018-12-30T01:03:58.600Z,18.83
2018-12-30T01:06:47.882Z,16.27
2018-12-30T01:09:36.947Z,19.57
2018-12-30T01:12:26.395Z,21.23
2018-12-30T01:15:15.884Z,18.13
2018-12-30T01:18:05.361Z,17.97
2018-12-30T01:20:55.087Z,23.33
2018-12-30T01:23:44.788Z,16.60
2018-12-30T01:26:34.519Z,22.10
2018-12-30T01:29:23.969Z,18.67
2018-12-30T01:32:14.017Z,24.77
2018-12-30T01:34:44.854Z,17.33
2018-12-30T01:37:36.061Z,16.10
2018-12-30T01:40:19.202Z,16.60
2018-12-30T01:43:08.779Z,15.80
2018-12-30T01:45:58.211Z,17.30
2018-12-30T01:48:47.705Z,20.70
2018-12-30T01:51:37.122Z,12.17
2018-12-30T01:54:26.849Z,15.23
2018-12-30T01:57:16.350Z,15.60
2018-12-30T02:00:06.360Z,19.43
2018-12-30T02:02:55.757Z,14.17
2018-12-30T02:05:45.331Z,13.40
2018-12-30T02:08:34.783Z,17.13
2018-12-30T02:11:24.564Z,16.33
2018-12-30T02:13:54.903Z,14.77
2018-12-30T02:16:44.570Z,20.63
2018-12-30T02:19:33.899Z,19.90
2018-12-30T02:22:16.112Z,16.67
2018-12-30T02:25:05.837Z,17.40
2018-12-30T02:27:55.259Z,16.47
2018-12-30T02:30:46.695Z,19.90
2018-12-30T02:33:36.131Z,14.20
2018-12-30T02:36:26.152Z,20.83
2018-12-30T02:39:16.170Z,22.20
2018-12-30T02:41:58.609Z,21.53
2018-12-30T02:44:48.340Z,19.40
2018-12-30T02:47:37.750Z,14.43
2018-12-30T02:50:27.512Z,23.10
2018-12-30T02:52:58.029Z,26.27
2018-12-30T02:55:47.564Z,23.10
2018-12-30T02:58:37.311Z,19.87
2018-12-30T03:01:27.046Z,20.60
2018-12-30T03:04:16.491Z,24.50
2018-12-30T03:07:06.327Z,20.13
2018-12-30T03:09:56.163Z,15.37
2018-12-30T03:12:45.678Z,19.07
2018-12-30T03:15:16.010Z,20.97
2018-12-30T03:17:46.390Z,14.03
2018-12-30T03:20:17.024Z,22.97
2018-12-30T03:23:06.506Z,21.60
2018-12-30T03:25:56.561Z,19.37
2018-12-30T03:28:45.998Z,21.33
2018-12-30T03:31:35.511Z,21.23
2018-12-30T03:34:25.101Z,16.97
2018-12-30T03:37:14.602Z,20.07
2018-12-30T03:43:11.830Z,16.53
2018-12-30T03:46:01.340Z,17.90
2018-12-30T03:48:50.764Z,22.03
2018-12-30T03:51:21.538Z,17.27
2018-12-30T03:54:11.099Z,18.60
2018-12-30T03:57:01.358Z,17.63
2018-12-30T03:59:51.086Z,18.73
2018-12-30T04:02:41.844Z,20.80
2018-12-30T04:05:32.115Z,24.70
2018-12-30T04:08:21.602Z,22.47
2018-12-30T04:11:11.067Z,19.83
2018-12-30T04:14:00.521Z,23.40
2018-12-30T04:16:50.242Z,22.70
2018-12-30T04:19:40.563Z,22.87
2018-12-30T04:22:30.020Z,23.37
2018-12-30T04:25:19.516Z,22.63
2018-12-30T04:28:09.235Z,23.30
2018-12-30T04:30:59.121Z,21.70
2018-12-30T04:33:29.857Z,16.07
2018-12-30T04:36:19.273Z,23.03
2018-12-30T04:39:09.299Z,25.37
2018-12-30T04:41:51.076Z,25.03
2018-12-30T04:44:40.599Z,20.67
2018-12-30T04:47:30.339Z,18.30
2018-12-30T04:50:19.801Z,19.17
2018-12-30T04:53:09.259Z,22.70
2018-12-30T04:55:58.748Z,23.23
2018-12-30T04:58:48.170Z,20.17
2018-12-30T05:01:18.820Z,22.13
2018-12-30T05:04:08.282Z,21.57
2018-12-30T05:06:58.738Z,24.13
2018-12-30T05:09:48.455Z,18.73
2018-12-30T05:12:19.151Z,18.10
2018-12-30T05:14:49.495Z,21.57
2018-12-30T05:17:38.961Z,17.03
2018-12-30T05:20:09.338Z,14.23
2018-12-30T05:22:58.850Z,20.67
2018-12-30T05:25:48.324Z,18.10
2018-12-30T05:28:38.140Z,22.27
2018-12-30T05:31:27.613Z,16.53
2018-12-30T05:34:17.049Z,19.30
2018-12-30T05:37:06.506Z,17.90
2018-12-30T05:39:56.043Z,18.63
2018-12-30T05:42:38.274Z,20.07
2018-12-30T05:45:27.713Z,16.93
2018-12-30T05:48:17.156Z,19.90
2018-12-30T05:51:06.601Z,16.23
2018-12-30T05:53:56.039Z,18.13
2018-12-30T05:56:45.475Z,18.27
2018-12-30T05:59:35.158Z,21.23
2018-12-30T06:02:24.900Z,16.63
2018-12-30T06:05:14.726Z,20.30
2018-12-30T06:08:04.196Z,19.07
2018-12-30T06:10:53.610Z,18.57
2018-12-30T06:13:43.798Z,20.00
2018-12-30T06:16:33.523Z,21.53
2018-12-30T06:19:22.969Z,21.37
2018-12-30T06:22:12.672Z,15.63
2018-12-30T06:25:02.135Z,19.93
2018-12-30T06:27:51.975Z,18.90
2018-12-30T06:30:41.422Z,17.20
2018-12-30T06:33:30.877Z,15.20
2018-12-30T06:36:01.231Z,21.63
2018-12-30T06:38:50.691Z,20.80
2018-12-30T06:41:33.214Z,17.70
2018-12-30T06:44:22.692Z,18.07
2018-12-30T06:47:12.127Z,18.03
2018-12-30T06:50:02.139Z,19.67
2018-12-30T06:52:57.610Z,22.37
2018-12-30T06:55:43.641Z,16.53
2018-12-30T06:58:33.344Z,18.40
2018-12-30T07:01:22.815Z,19.90
2018-12-30T07:04:12.303Z,15.80
2018-12-30T07:07:01.772Z,26.10
2018-12-30T07:09:51.295Z,17.87
2018-12-30T07:12:40.770Z,18.07
2018-12-30T07:15:30.218Z,23.03
2018-12-30T07:18:12.075Z,22.07
2018-12-30T07:21:01.641Z,19.00
2018-12-30T07:23:51.651Z,20.50
2018-12-30T07:26:22.048Z,18.67
2018-12-30T07:29:11.516Z,20.47
2018-12-30T07:32:01.276Z,20.23
2018-12-30T07:34:51.019Z,19.67
2018-12-30T07:37:40.485Z,20.63
2018-12-30T07:40:29.959Z,17.47
2018-12-30T07:43:11.867Z,24.43
2018-12-30T07:46:01.306Z,20.90
2018-12-30T07:48:50.709Z,18.47
2018-12-30T07:51:40.176Z,24.23
2018-12-30T07:54:29.975Z,18.97
2018-12-30T07:57:20.392Z,19.00
2018-12-30T08:00:10.396Z,30.03
2018-12-30T08:02:59.880Z,17.97
2018-12-30T08:05:49.339Z,23.23
2018-12-30T08:08:38.772Z,20.60
2018-12-30T08:11:28.467Z,21.23
2018-12-30T08:14:17.933Z,22.63
2018-12-30T08:17:07.741Z,21.57
2018-12-30T08:19:57.729Z,25.37
2018-12-30T08:22:47.183Z,26.87
2018-12-30T08:25:36.739Z,21.87
2018-12-30T08:28:26.224Z,20.60
2018-12-30T08:31:16.311Z,23.00
2018-12-30T08:34:06.098Z,19.90
2018-12-30T08:36:55.822Z,22.27
2018-12-30T08:39:45.309Z,21.57
2018-12-30T08:42:27.252Z,18.17
2018-12-30T08:45:16.690Z,22.60
2018-12-30T08:47:47.073Z,19.90
2018-12-30T08:50:17.462Z,24.53
2018-12-30T08:53:06.933Z,22.47
2018-12-30T08:55:56.419Z,18.87
2018-12-30T08:58:46.218Z,23.80
2018-12-30T09:01:35.704Z,17.07
2018-12-30T09:04:25.219Z,22.73
2018-12-30T09:07:14.682Z,23.20
2018-12-30T09:10:04.236Z,14.73
2018-12-30T09:12:53.725Z,24.33
2018-12-30T09:15:43.203Z,18.40
2018-12-30T09:18:32.676Z,23.27
2018-12-30T09:21:22.150Z,20.77
2018-12-30T09:24:11.584Z,20.37
2018-12-30T09:27:01.048Z,16.47
2018-12-30T09:29:50.093Z,17.97
2018-12-30T09:32:39.508Z,24.70
2018-12-30T09:35:28.934Z,22.93
2018-12-30T09:38:18.681Z,20.37
2018-12-30T09:41:08.245Z,20.07
2018-12-30T09:43:50.814Z,16.13
2018-12-30T09:46:40.538Z,20.47
2018-12-30T09:49:30.289Z,13.80
2018-12-30T09:52:19.781Z,19.97
2018-12-30T09:55:09.272Z,18.80
2018-12-30T09:57:58.787Z,17.23
2018-12-30T10:00:48.739Z,22.00
2018-12-30T10:03:38.206Z,17.33
2018-12-30T10:06:28.042Z,20.33
2018-12-30T10:09:18.045Z,16.50
2018-12-30T10:12:07.469Z,20.03
2018-12-30T10:14:56.946Z,21.70
2018-12-30T10:17:46.538Z,13.40
2018-12-30T10:20:36.160Z,22.67
2018-12-30T10:23:25.611Z,17.33
2018-12-30T10:26:15.283Z,17.30
2018-12-30T10:29:04.876Z,18.07
2018-12-30T10:31:54.709Z,18.47
2018-12-30T10:34:44.211Z,15.50
2018-12-30T10:37:33.642Z,17.70
2018-12-30T10:40:23.359Z,18.37
2018-12-30T10:43:06.880Z,15.73
2018-12-30T10:45:56.318Z,20.53
2018-12-30T10:48:45.792Z,25.83
2018-12-30T10:51:35.313Z,21.50
2018-12-30T10:54:24.803Z,17.27
2018-12-30T10:57:14.502Z,19.13
2018-12-30T11:00:04.327Z,22.23
2018-12-30T11:02:34.940Z,18.70
2018-12-30T11:05:24.670Z,19.50
2018-12-30T11:07:55.323Z,17.83
2018-12-30T11:10:44.774Z,18.57
2018-12-30T11:13:34.480Z,18.13
2018-12-30T11:16:23.892Z,14.70
2018-12-30T11:19:13.378Z,19.67
2018-12-30T11:22:03.038Z,19.80
2018-12-30T11:24:52.504Z,14.67
2018-12-30T11:27:42.118Z,16.07
2018-12-30T11:30:31.591Z,16.90
2018-12-30T11:33:21.069Z,16.63
2018-12-30T11:36:10.631Z,14.60
2018-12-30T11:39:00.115Z,15.23
2018-12-30T11:41:49.593Z,12.77
2018-12-30T11:44:31.351Z,16.17
2018-12-30T11:47:20.796Z,11.63
2018-12-30T11:50:10.818Z,12.20
2018-12-30T11:53:00.299Z,14.00
2018-12-30T11:55:49.771Z,13.97
2018-12-30T11:58:39.473Z,10.53
2018-12-30T12:01:28.972Z,15.57
2018-12-30T12:04:18.453Z,13.47
2018-12-30T12:07:07.924Z,16.20
2018-12-30T12:09:57.371Z,16.83
2018-12-30T12:12:49.130Z,16.30
2018-12-30T12:15:38.373Z,14.80
2018-12-30T12:18:29.472Z,20.43
2018-12-30T12:21:18.939Z,16.37
2018-12-30T12:24:08.394Z,12.33
2018-12-30T12:26:58.176Z,12.30
2018-12-30T12:29:48.821Z,14.23
2018-12-30T12:32:38.259Z,14.77
2018-12-30T12:35:09.605Z,11.70
2018-12-30T12:37:59.024Z,13.50
2018-12-30T12:40:48.552Z,11.57
2018-12-30T12:43:38.313Z,17.40
2018-12-30T12:46:27.807Z,12.83
2018-12-30T12:49:17.583Z,11.43
2018-12-30T12:52:07.078Z,15.43
2018-12-30T12:54:56.940Z,17.00
2018-12-30T12:57:46.411Z,18.37
2018-12-30T13:00:36.130Z,11.47
2018-12-30T13:03:25.973Z,16.43
2018-12-30T13:06:15.441Z,12.23
2018-12-30T13:09:25.442Z,12.10
2018-12-30T13:11:56.332Z,13.70
2018-12-30T13:14:26.819Z,13.43
2018-12-30T13:17:16.534Z,14.47
2018-12-30T13:20:06.436Z,12.43
2018-12-30T13:22:55.923Z,11.23
2018-12-30T13:25:45.685Z,13.07
2018-12-30T13:28:35.186Z,11.30
2018-12-30T13:31:24.636Z,12.63
2018-12-30T13:34:14.123Z,11.60
2018-12-30T13:37:03.639Z,10.30
2018-12-30T13:39:53.375Z,14.70
2018-12-30T13:42:37.240Z,14.73
2018-12-30T13:45:26.985Z,12.80
2018-12-30T13:48:16.772Z,9.90
2018-12-30T13:51:06.201Z,16.77
2018-12-30T13:53:55.949Z,12.20
2018-12-30T13:56:26.235Z,11.87
2018-12-30T13:59:15.663Z,12.83
2018-12-30T14:02:05.239Z,12.97
2018-12-30T14:04:54.813Z,12.53
2018-12-30T14:07:44.271Z,12.63
2018-12-30T14:10:33.754Z,11.30
2018-12-30T14:13:23.794Z,14.33
2018-12-30T14:16:13.608Z,12.43
2018-12-30T14:19:03.046Z,16.83
2018-12-30T14:21:33.693Z,13.33
2018-12-30T14:24:23.157Z,15.20
2018-12-30T14:26:59.808Z,13.47
2018-12-30T14:29:25.614Z,12.53
2018-12-30T14:32:15.406Z,12.60
2018-12-30T14:35:04.916Z,12.60
2018-12-30T14:37:54.347Z,11.87
2018-12-30T14:40:43.285Z,10.97
2018-12-30T14:43:25.705Z,13.47
2018-12-30T14:46:15.449Z,11.83
2018-12-30T14:49:04.938Z,11.30
2018-12-30T14:51:54.378Z,16.97
2018-12-30T14:54:43.843Z,12.57
2018-12-30T14:57:33.280Z,17.63
2018-12-30T15:00:22.756Z,12.60
2018-12-30T15:03:12.467Z,14.23
2018-12-30T15:06:01.903Z,8.97
2018-12-30T15:08:51.358Z,11.27
2018-12-30T15:11:41.134Z,12.30
2018-12-30T15:14:30.899Z,14.07
2018-12-30T15:17:20.481Z,12.47
2018-12-30T15:20:10.247Z,10.10
2018-12-30T15:22:59.692Z,15.37
2018-12-30T15:25:49.119Z,12.40
2018-12-30T15:28:20.054Z,10.63
2018-12-30T15:30:50.779Z,11.43
2018-12-30T15:33:40.491Z,13.87
2018-12-30T15:36:30.030Z,16.87
2018-12-30T15:39:19.833Z,12.17
2018-12-30T15:42:01.653Z,14.40
2018-12-30T15:44:51.395Z,8.17
2018-12-30T15:47:41.153Z,10.50
2018-12-30T15:50:30.602Z,8.10
2018-12-30T15:53:20.058Z,10.97
2018-12-30T15:56:10.017Z,11.30
2018-12-30T15:58:59.475Z,10.93
2018-12-30T16:01:49.255Z,8.93
2018-12-30T16:04:38.705Z,13.77
2018-12-30T16:07:28.154Z,14.10
2018-12-30T16:10:17.625Z,12.23
2018-12-30T16:13:07.036Z,13.43
2018-12-30T16:15:56.517Z,7.93
2018-12-30T16:18:46.301Z,13.60
2018-12-30T16:21:35.791Z,12.47
2018-12-30T16:24:25.211Z,9.40
2018-12-30T16:27:14.687Z,9.70
2018-12-30T16:33:32.952Z,8.87
2018-12-30T16:36:21.988Z,14.23
2018-12-30T16:39:11.882Z,13.00
2018-12-30T16:41:53.925Z,13.53
2018-12-30T16:44:43.655Z,13.20
2018-12-30T16:47:33.092Z,14.20
2018-12-30T16:50:22.573Z,8.57
2018-12-30T16:53:12.148Z,10.63
2018-12-30T16:56:01.637Z,16.27
2018-12-30T16:58:51.199Z,10.07
2018-12-30T17:01:40.685Z,11.23
2018-12-30T17:04:30.152Z,12.50
2018-12-30T17:07:19.587Z,10.67
2018-12-30T17:10:09.889Z,15.13
2018-12-30T17:12:59.358Z,14.10
2018-12-30T17:15:49.166Z,15.03
2018-12-30T17:18:38.641Z,13.10
2018-12-30T17:21:28.406Z,10.90
2018-12-30T17:24:17.885Z,12.10
2018-12-30T17:27:07.403Z,14.43
2018-12-30T17:29:56.836Z,12.80
2018-12-30T17:32:46.353Z,16.23
2018-12-30T17:35:36.063Z,16.37
2018-12-30T17:38:25.504Z,15.20
2018-12-30T17:41:15.007Z,11.87
2018-12-30T17:43:45.318Z,15.80
2018-12-30T17:46:18.413Z,16.13
2018-12-30T17:49:06.851Z,15.40
2018-12-30T17:51:56.593Z,15.37
2018-12-30T17:54:46.275Z,16.93
2018-12-30T17:57:35.778Z,18.50
2018-12-30T18:00:25.514Z,19.63
2018-12-30T18:03:15.154Z,15.50
2018-12-30T18:05:45.514Z,18.57
2018-12-30T18:08:34.957Z,24.40
2018-12-30T18:11:24.413Z,18.73
2018-12-30T18:14:13.904Z,20.07
2018-12-30T18:17:03.632Z,19.43
2018-12-30T18:19:53.117Z,20.33
2018-12-30T18:22:42.590Z,25.40
2018-12-30T18:25:32.045Z,25.07
2018-12-30T18:28:21.514Z,20.37
2018-12-30T18:31:11.304Z,22.47
2018-12-30T18:34:01.035Z,24.00
2018-12-30T18:36:50.879Z,20.40
2018-12-30T18:39:40.320Z,20.43
2018-12-30T18:42:23.172Z,24.80
2018-12-30T18:45:12.630Z,21.90
2018-12-30T18:48:02.143Z,21.70
2018-12-30T18:50:51.613Z,22.53
2018-12-30T18:53:41.127Z,20.20
2018-12-30T18:56:30.660Z,23.50
2018-12-30T18:59:01.462Z,21.27
2018-12-30T19:01:31.814Z,22.07
2018-12-30T19:04:21.253Z,21.43
2018-12-30T19:06:51.973Z,25.80
2018-12-30T19:09:22.375Z,22.53
2018-12-30T19:12:11.840Z,22.17
2018-12-30T19:15:01.351Z,21.73
2018-12-30T19:17:50.885Z,23.50
2018-12-30T19:20:21.254Z,24.23
2018-12-30T19:23:11.004Z,29.90
2018-12-30T19:26:01.347Z,22.20
2018-12-30T19:28:52.076Z,24.33
2018-12-30T19:31:41.781Z,21.47
2018-12-30T19:34:31.254Z,22.43
2018-12-30T19:37:21.012Z,22.93
2018-12-30T19:40:03.397Z,21.87
2018-12-30T19:42:34.197Z,22.00
2018-12-30T19:45:23.886Z,24.87
2018-12-30T19:48:13.383Z,24.97
2018-12-30T19:51:02.892Z,23.50
2018-12-30T19:53:52.598Z,25.90
2018-12-30T19:56:43.345Z,22.93
2018-12-30T19:59:14.073Z,21.33
2018-12-30T20:01:44.928Z,21.77
2018-12-30T20:04:40.629Z,21.93
2018-12-30T20:07:25.963Z,21.07
2018-12-30T20:10:15.762Z,20.53
2018-12-30T20:13:08.996Z,20.60
2018-12-30T20:15:56.427Z,21.00
2018-12-30T20:18:45.872Z,20.73
2018-12-30T20:21:35.359Z,20.67
2018-12-30T20:24:24.802Z,20.63
2018-12-30T20:27:14.586Z,20.83
2018-12-30T20:30:04.490Z,20.23
2018-12-30T20:32:54.189Z,20.33
2018-12-30T20:35:43.699Z,21.30
2018-12-30T20:38:26.612Z,22.43
2018-12-30T20:41:16.147Z,18.87
2018-12-30T20:44:06.109Z,20.43
2018-12-30T20:46:55.790Z,20.73
2018-12-30T20:49:45.506Z,34.03
2018-12-30T20:52:35.029Z,21.80
2018-12-30T20:55:24.899Z,22.60
2018-12-30T20:58:14.351Z,21.87
2018-12-30T21:01:04.183Z,20.93
2018-12-30T21:03:53.639Z,20.37
2018-12-30T21:06:43.103Z,20.20
2018-12-30T21:09:33.543Z,22.70
2018-12-30T21:12:22.987Z,20.93
2018-12-30T21:15:12.789Z,19.47
2018-12-30T21:18:02.329Z,20.93
2018-12-30T21:20:52.398Z,21.87
2018-12-30T21:23:41.855Z,21.73
2018-12-30T21:26:31.309Z,19.70
2018-12-30T21:29:20.787Z,20.67
2018-12-30T21:32:10.562Z,22.33
2018-12-30T21:35:00.109Z,18.73
2018-12-30T21:37:49.676Z,20.87
2018-12-30T21:40:31.435Z,19.97
2018-12-30T21:43:01.819Z,20.77
2018-12-30T21:45:51.291Z,21.77
2018-12-30T21:48:40.706Z,20.70
2018-12-30T21:51:11.081Z,26.43
2018-12-30T21:53:42.288Z,25.70
2018-12-30T21:56:12.990Z,29.17
2018-12-30T21:59:02.496Z,28.77
2018-12-30T22:01:51.925Z,27.43
2018-12-30T22:04:41.420Z,28.10
2018-12-30T22:07:31.112Z,29.67
2018-12-30T22:10:20.955Z,27.30
2018-12-30T22:13:10.399Z,28.73
2018-12-30T22:15:41.162Z,28.90
2018-12-30T22:18:30.607Z,29.60
2018-12-30T22:21:20.323Z,29.30
2018-12-30T22:24:09.768Z,30.30
2018-12-30T22:26:59.453Z,31.13
2018-12-30T22:29:48.921Z,29.03
2018-12-30T22:32:38.389Z,30.37
2018-12-30T22:35:28.160Z,33.60
2018-12-30T22:38:18.042Z,33.13
2018-12-30T22:41:07.515Z,35.47
2018-12-30T22:43:57.006Z,31.80
2018-12-30T22:46:46.436Z,30.53
2018-12-30T22:49:35.873Z,34.90
2018-12-30T22:52:25.770Z,37.20
2018-12-30T22:55:15.269Z,37.67
2018-12-30T22:58:04.714Z,46.93
2018-12-30T23:01:13.172Z,37.53
2018-12-30T23:04:02.943Z,38.63
2018-12-30T23:06:52.795Z,42.43
2018-12-30T23:09:42.269Z,32.93
2018-12-30T23:12:31.726Z,32.73
2018-12-30T23:15:21.192Z,41.90
2018-12-30T23:18:11.232Z,38.90
2018-12-30T23:21:01.309Z,40.07
2018-12-30T23:23:50.892Z,38.00
2018-12-30T23:26:40.365Z,36.97
2018-12-30T23:29:29.825Z,49.10
2018-12-30T23:32:19.568Z,41.80
2018-12-30T23:35:09.028Z,41.77
2018-12-30T23:37:58.941Z,41.93
2018-12-30T23:40:41.373Z,51.07
2018-12-30T23:43:30.818Z,54.77
2018-12-30T23:46:20.239Z,41.80
2018-12-30T23:49:09.685Z,48.33
2018-12-30T23:51:59.100Z,50.33
2018-12-30T23:54:48.541Z,53.43
2018-12-30T23:57:38.033Z,47.97
